createdAt,value
2018-07-16T00:00:37.633Z,31.1
2018-07-16T00:01:40.077Z,31.2
2018-07-16T00:02:41.954Z,31.1
2018-07-16T00:03:44.399Z,31.2
2018-07-16T00:04:46.847Z,31.2
2018-07-16T00:05:49.312Z,31.2
2018-07-16T00:06:51.768Z,31.2
2018-07-16T00:07:53.928Z,31.2
2018-07-16T00:08:55.569Z,31.2
2018-07-16T00:09:58.034Z,31.2
2018-07-16T00:11:00.208Z,31.2
2018-07-16T00:12:02.364Z,31.2
2018-07-16T00:13:04.277Z,31.2
2018-07-16T00:14:06.449Z,31.2
2018-07-16T00:15:08.907Z,31.2
2018-07-16T00:16:11.094Z,31.2
2018-07-16T00:17:12.977Z,31.2
2018-07-16T00:18:15.158Z,31.2
2018-07-16T00:19:17.372Z,31.2
2018-07-16T00:20:19.550Z,31.2
2018-07-16T00:21:21.751Z,31.2
2018-07-16T00:22:24.204Z,31.2
2018-07-16T00:23:26.377Z,31.2
2018-07-16T00:24:28.546Z,31.2
2018-07-16T00:25:30.999Z,31.2
2018-07-16T00:26:32.903Z,31.2
2018-07-16T00:27:34.548Z,31.2
2018-07-16T00:28:36.733Z,31.2
2018-07-16T00:29:38.648Z,31.2
2018-07-16T00:30:41.112Z,31.2
2018-07-16T00:31:43.556Z,31.2
2018-07-16T00:32:45.741Z,31.2
2018-07-16T00:33:47.644Z,31.2
2018-07-16T00:34:50.080Z,31.2
2018-07-16T00:35:51.968Z,31.2
2018-07-16T00:36:53.887Z,31.2
2018-07-16T00:37:56.069Z,31.2
2018-07-16T00:38:58.516Z,31.2
2018-07-16T00:40:00.459Z,31.2
2018-07-16T00:41:02.631Z,31.2
2018-07-16T00:42:04.839Z,31.2
2018-07-16T00:43:07.020Z,31.2
2018-07-16T00:44:09.200Z,31.2
2018-07-16T00:45:11.648Z,31.2
2018-07-16T00:46:14.088Z,31.2
2018-07-16T00:47:15.982Z,31.2
2018-07-16T00:48:18.432Z,31.2
2018-07-16T00:49:20.867Z,31.2
2018-07-16T00:50:23.319Z,31.3
2018-07-16T00:51:25.251Z,31.3
2018-07-16T00:52:27.135Z,31.3
2018-07-16T00:53:29.580Z,31.3
2018-07-16T00:54:32.050Z,31.3
2018-07-16T00:55:33.968Z,31.3
2018-07-16T00:56:36.424Z,31.3
2018-07-16T00:57:38.584Z,31.3
2018-07-16T00:58:40.771Z,31.3
2018-07-16T00:59:43.238Z,31.3
2018-07-16T01:00:45.409Z,31.3
2018-07-16T01:01:47.602Z,31.3
2018-07-16T01:02:49.769Z,31.3
2018-07-16T01:03:52.220Z,31.3
2018-07-16T01:04:54.419Z,31.3
2018-07-16T01:05:56.574Z,31.3
2018-07-16T01:06:58.765Z,31.3
2018-07-16T01:08:00.936Z,31.3
2018-07-16T01:09:03.386Z,31.3
2018-07-16T01:10:05.868Z,31.3
2018-07-16T01:11:08.315Z,31.3
2018-07-16T01:12:10.219Z,31.3
2018-07-16T01:13:12.661Z,31.3
2018-07-16T01:14:15.126Z,31.3
2018-07-16T01:15:17.294Z,31.3
2018-07-16T01:16:19.745Z,31.3
2018-07-16T01:17:21.919Z,31.3
2018-07-16T01:18:23.254Z,31.3
2018-07-16T01:19:25.422Z,31.3
2018-07-16T01:20:27.876Z,31.3
2018-07-16T01:21:30.048Z,31.3
2018-07-16T01:22:32.511Z,31.3
2018-07-16T01:23:34.700Z,31.3
2018-07-16T01:24:37.201Z,31.3
2018-07-16T01:25:39.363Z,31.3
2018-07-16T01:26:41.809Z,31.3
2018-07-16T01:27:43.726Z,31.3
2018-07-16T01:28:46.171Z,31.3
2018-07-16T01:29:48.084Z,31.3
2018-07-16T01:30:50.255Z,31.3
2018-07-16T01:31:52.144Z,31.3
2018-07-16T01:32:54.350Z,31.3
2018-07-16T01:33:56.835Z,31.3
2018-07-16T01:35:13.945Z,31.3
2018-07-16T01:36:16.108Z,31.3
2018-07-16T01:37:18.295Z,31.3
2018-07-16T01:38:20.761Z,31.3
2018-07-16T01:39:23.207Z,31.3
2018-07-16T01:40:25.661Z,31.3
2018-07-16T01:41:27.540Z,31.3
2018-07-16T01:42:29.477Z,31.3
2018-07-16T01:43:31.367Z,31.3
2018-07-16T01:44:33.549Z,31.3
2018-07-16T01:45:35.700Z,31.3
2018-07-16T01:46:38.149Z,31.3
2018-07-16T01:47:40.023Z,31.3
2018-07-16T01:48:42.223Z,31.3
2018-07-16T01:49:44.106Z,31.3
2018-07-16T01:50:46.265Z,31.3
2018-07-16T01:51:48.706Z,31.3
2018-07-16T01:52:51.161Z,31.3
2018-07-16T01:53:53.606Z,31.3
2018-07-16T01:54:56.050Z,31.3
2018-07-16T01:55:58.496Z,31.3
2018-07-16T01:57:00.677Z,31.3
2018-07-16T01:58:02.887Z,31.3
2018-07-16T01:59:05.328Z,31.4
2018-07-16T02:00:07.781Z,31.4
2018-07-16T02:01:10.007Z,31.3
2018-07-16T02:02:12.177Z,31.3
2018-07-16T02:03:14.352Z,31.3
2018-07-16T02:04:16.498Z,31.4
2018-07-16T02:05:18.404Z,31.4
2018-07-16T02:06:20.857Z,31.4
2018-07-16T02:07:22.744Z,31.4
2018-07-16T02:08:25.188Z,31.4
2018-07-16T02:09:27.360Z,31.4
2018-07-16T02:10:29.797Z,31.4
2018-07-16T02:11:32.245Z,31.4
2018-07-16T02:12:34.434Z,31.4
2018-07-16T02:13:36.357Z,31.4
2018-07-16T02:14:38.237Z,31.4
2018-07-16T02:15:40.144Z,31.4
2018-07-16T02:16:42.057Z,31.4
2018-07-16T02:17:44.505Z,31.4
2018-07-16T02:18:46.947Z,31.4
2018-07-16T02:19:49.394Z,31.4
2018-07-16T02:20:51.291Z,31.4
2018-07-16T02:21:53.182Z,31.4
2018-07-16T02:22:55.635Z,31.4
2018-07-16T02:23:58.078Z,31.4
2018-07-16T02:25:00.267Z,31.4
2018-07-16T02:26:02.705Z,31.3
2018-07-16T02:27:04.884Z,31.4
2018-07-16T02:28:06.778Z,31.4
2018-07-16T02:29:08.684Z,31.4
2018-07-16T02:30:11.127Z,31.4
2018-07-16T02:31:13.309Z,31.4
2018-07-16T02:32:15.498Z,31.4
2018-07-16T02:33:17.955Z,31.4
2018-07-16T02:34:19.846Z,31.3
2018-07-16T02:35:22.307Z,31.4
2018-07-16T02:36:24.478Z,31.4
2018-07-16T02:37:26.639Z,31.4
2018-07-16T02:38:28.540Z,31.4
2018-07-16T02:39:30.988Z,31.4
2018-07-16T02:40:33.443Z,31.4
2018-07-16T02:41:35.614Z,31.4
2018-07-16T02:42:38.059Z,31.4
2018-07-16T02:43:40.249Z,31.3
2018-07-16T02:44:42.398Z,31.4
2018-07-16T02:45:44.054Z,31.4
2018-07-16T02:46:46.252Z,31.4
2018-07-16T02:47:48.698Z,31.4
2018-07-16T02:48:51.140Z,31.4
2018-07-16T02:49:53.602Z,31.4
2018-07-16T02:50:56.053Z,31.4
2018-07-16T02:51:58.501Z,31.4
2018-07-16T02:53:00.653Z,31.4
2018-07-16T02:54:02.830Z,31.4
2018-07-16T02:55:05.007Z,31.4
2018-07-16T02:56:07.455Z,31.4
2018-07-16T02:57:09.605Z,31.4
2018-07-16T02:58:12.063Z,31.4
2018-07-16T02:59:14.515Z,31.4
2018-07-16T03:00:16.965Z,31.4
2018-07-16T03:01:19.112Z,31.4
2018-07-16T03:02:21.310Z,31.3
2018-07-16T03:03:23.457Z,31.3
2018-07-16T03:04:25.660Z,31.3
2018-07-16T03:05:27.820Z,31.3
2018-07-16T03:06:30.267Z,31.3
2018-07-16T03:07:32.507Z,31.3
2018-07-16T03:08:34.740Z,31.3
2018-07-16T03:09:37.185Z,31.3
2018-07-16T03:10:39.066Z,31.3
2018-07-16T03:11:41.532Z,31.3
2018-07-16T03:12:43.995Z,31.3
2018-07-16T03:13:46.437Z,31.3
2018-07-16T03:14:48.889Z,31.2
2018-07-16T03:15:50.754Z,31.2
2018-07-16T03:16:52.638Z,31.2
2018-07-16T03:17:55.116Z,31.2
2018-07-16T03:18:57.317Z,31.2
2018-07-16T03:19:59.507Z,31.2
2018-07-16T03:21:01.680Z,31.2
2018-07-16T03:22:03.876Z,31.2
2018-07-16T03:23:06.067Z,31.2
2018-07-16T03:24:08.508Z,31.2
2018-07-16T03:25:10.675Z,31.2
2018-07-16T03:26:12.836Z,31.2
2018-07-16T03:27:14.748Z,31.2
2018-07-16T03:28:16.092Z,31.2
2018-07-16T03:29:18.240Z,31.1
2018-07-16T03:30:20.688Z,31.1
2018-07-16T03:31:22.868Z,31.1
2018-07-16T03:32:25.024Z,31.1
2018-07-16T03:33:27.207Z,31.1
2018-07-16T03:34:29.357Z,31.1
2018-07-16T03:35:31.262Z,31.1
2018-07-16T03:36:33.431Z,31.1
2018-07-16T03:37:35.326Z,31.1
2018-07-16T03:38:37.493Z,31.1
2018-07-16T03:39:39.944Z,31.1
2018-07-16T03:40:42.380Z,31.1
2018-07-16T03:41:44.571Z,31.1
2018-07-16T03:42:47.024Z,31.1
2018-07-16T03:43:49.203Z,31.1
2018-07-16T03:44:51.652Z,31.1
2018-07-16T03:45:54.093Z,31.1
2018-07-16T03:46:56.271Z,31
2018-07-16T03:47:58.897Z,31
2018-07-16T03:49:01.447Z,31
2018-07-16T03:50:03.098Z,31
2018-07-16T03:51:04.991Z,31
2018-07-16T03:52:07.154Z,31
2018-07-16T03:53:09.337Z,31
2018-07-16T03:54:11.524Z,31
2018-07-16T03:55:13.963Z,31
2018-07-16T03:56:16.424Z,31
2018-07-16T03:57:18.569Z,31
2018-07-16T03:58:20.486Z,31
2018-07-16T03:59:22.655Z,31
2018-07-16T04:00:25.097Z,31
2018-07-16T04:01:27.067Z,31
2018-07-16T04:02:28.975Z,31
2018-07-16T04:03:31.150Z,31
2018-07-16T04:04:33.317Z,31
2018-07-16T04:05:35.486Z,31
2018-07-16T04:06:37.930Z,31
2018-07-16T04:07:40.385Z,31
2018-07-16T04:08:42.827Z,31
2018-07-16T04:09:45.012Z,31
2018-07-16T04:10:47.199Z,31
2018-07-16T04:11:49.089Z,31
2018-07-16T04:12:51.271Z,31
2018-07-16T04:13:53.438Z,31
2018-07-16T04:14:55.892Z,31
2018-07-16T04:15:58.058Z,31
2018-07-16T04:17:00.237Z,31
2018-07-16T04:18:02.703Z,31
2018-07-16T04:19:05.149Z,31
2018-07-16T04:20:07.591Z,31
2018-07-16T04:21:09.505Z,31
2018-07-16T04:22:11.954Z,31
2018-07-16T04:23:13.871Z,31
2018-07-16T04:24:16.038Z,31
2018-07-16T04:25:18.482Z,31
2018-07-16T04:26:20.657Z,31
2018-07-16T04:27:22.557Z,31
2018-07-16T04:28:25.014Z,31
2018-07-16T04:29:27.456Z,31
2018-07-16T04:30:29.602Z,31
2018-07-16T04:31:31.781Z,31
2018-07-16T04:32:33.938Z,31
2018-07-16T04:33:36.403Z,30.9
2018-07-16T04:34:38.861Z,30.9
2018-07-16T04:35:41.305Z,30.9
2018-07-16T04:36:43.208Z,30.9
2018-07-16T04:37:45.366Z,30.9
2018-07-16T04:38:47.807Z,30.9
2018-07-16T04:39:50.379Z,30.9
2018-07-16T04:40:52.593Z,30.9
2018-07-16T04:41:54.774Z,30.9
2018-07-16T04:42:57.226Z,30.9
2018-07-16T04:43:59.660Z,30.9
2018-07-16T04:45:02.095Z,30.9
2018-07-16T04:46:04.554Z,30.9
2018-07-16T04:47:06.990Z,30.9
2018-07-16T04:48:09.440Z,30.9
2018-07-16T04:49:11.616Z,30.9
2018-07-16T04:50:13.259Z,30.9
2018-07-16T04:51:15.725Z,30.9
2018-07-16T04:52:17.646Z,30.9
2018-07-16T04:53:20.093Z,30.9
2018-07-16T04:54:21.986Z,30.9
2018-07-16T04:55:24.162Z,30.9
2018-07-16T04:56:26.339Z,30.9
2018-07-16T04:57:28.235Z,30.9
2018-07-16T04:58:30.426Z,30.9
2018-07-16T04:59:32.876Z,30.9
2018-07-16T05:00:35.053Z,30.9
2018-07-16T05:01:36.935Z,30.9
2018-07-16T05:02:39.107Z,30.9
2018-07-16T05:03:41.292Z,30.9
2018-07-16T05:04:43.735Z,30.9
2018-07-16T05:05:46.186Z,30.9
2018-07-16T05:06:48.367Z,30.9
2018-07-16T05:07:50.815Z,30.9
2018-07-16T05:08:53.267Z,30.9
2018-07-16T05:09:55.417Z,30.9
2018-07-16T05:10:57.595Z,30.9
2018-07-16T05:11:59.513Z,30.9
2018-07-16T05:13:01.959Z,30.9
2018-07-16T05:14:04.410Z,30.9
2018-07-16T05:15:06.857Z,30.9
2018-07-16T05:16:09.314Z,30.9
2018-07-16T05:17:11.486Z,30.9
2018-07-16T05:18:14.176Z,30.9
2018-07-16T05:19:16.884Z,30.9
2018-07-16T05:20:18.768Z,30.9
2018-07-16T05:21:20.951Z,30.9
2018-07-16T05:22:23.114Z,30.9
2018-07-16T05:23:25.260Z,30.9
2018-07-16T05:24:27.709Z,30.9
2018-07-16T05:25:30.161Z,30.9
2018-07-16T05:26:32.630Z,30.9
2018-07-16T05:27:35.067Z,30.9
2018-07-16T05:28:37.251Z,30.9
2018-07-16T05:29:38.857Z,30.9
2018-07-16T05:30:41.296Z,30.9
2018-07-16T05:31:43.853Z,30.9
2018-07-16T05:32:47.296Z,30.8
2018-07-16T05:33:50.251Z,30.8
2018-07-16T05:34:52.696Z,30.8
2018-07-16T05:35:54.888Z,30.8
2018-07-16T05:36:57.067Z,30.8
2018-07-16T05:37:58.944Z,30.8
2018-07-16T05:39:01.127Z,30.8
2018-07-16T05:40:02.747Z,30.8
2018-07-16T05:41:05.185Z,30.8
2018-07-16T05:42:07.359Z,30.8
2018-07-16T05:43:09.513Z,30.8
2018-07-16T05:44:11.970Z,30.8
2018-07-16T05:45:14.136Z,30.8
2018-07-16T05:46:16.046Z,30.8
2018-07-16T05:47:18.507Z,30.8
2018-07-16T05:48:20.683Z,30.8
2018-07-16T05:49:22.302Z,30.8
2018-07-16T05:50:24.500Z,30.8
2018-07-16T05:51:26.955Z,30.8
2018-07-16T05:52:29.111Z,30.8
2018-07-16T05:53:31.565Z,30.8
2018-07-16T05:54:33.767Z,30.8
2018-07-16T05:55:35.958Z,30.8
2018-07-16T05:56:38.425Z,30.8
2018-07-16T05:57:40.868Z,30.8
2018-07-16T05:58:43.331Z,30.8
2018-07-16T05:59:45.776Z,30.8
2018-07-16T06:00:48.223Z,30.8
2018-07-16T06:01:50.672Z,30.8
2018-07-16T06:02:52.590Z,30.8
2018-07-16T06:03:55.041Z,30.8
2018-07-16T06:04:56.917Z,30.8
2018-07-16T06:05:59.068Z,30.8
2018-07-16T06:07:01.518Z,30.8
2018-07-16T06:08:03.724Z,30.8
2018-07-16T06:09:05.970Z,30.8
2018-07-16T06:10:08.419Z,30.8
2018-07-16T06:11:10.614Z,30.8
2018-07-16T06:12:12.787Z,30.8
2018-07-16T06:13:14.967Z,30.8
2018-07-16T06:14:17.417Z,30.8
2018-07-16T06:15:19.887Z,30.8
2018-07-16T06:16:22.338Z,30.8
2018-07-16T06:17:24.525Z,30.8
2018-07-16T06:18:26.989Z,30.8
2018-07-16T06:19:29.182Z,30.8
2018-07-16T06:20:31.627Z,30.8
2018-07-16T06:21:33.812Z,30.8
2018-07-16T06:22:35.987Z,30.8
2018-07-16T06:23:38.439Z,30.8
2018-07-16T06:24:40.327Z,30.8
2018-07-16T06:25:42.526Z,30.8
2018-07-16T06:26:44.976Z,30.8
2018-07-16T06:27:47.165Z,30.8
2018-07-16T06:28:49.319Z,30.8
2018-07-16T06:29:51.187Z,30.8
2018-07-16T06:30:53.637Z,30.8
2018-07-16T06:31:56.090Z,30.8
2018-07-16T06:32:58.545Z,30.8
2018-07-16T06:34:00.752Z,30.8
2018-07-16T06:35:02.929Z,30.8
2018-07-16T06:36:04.796Z,30.8
2018-07-16T06:37:07.249Z,30.8
2018-07-16T06:38:09.153Z,30.8
2018-07-16T06:39:11.604Z,30.8
2018-07-16T06:40:14.504Z,30.8
2018-07-16T06:41:17.946Z,30.8
2018-07-16T06:42:21.174Z,30.8
2018-07-16T06:43:23.624Z,30.8
2018-07-16T06:44:26.071Z,30.8
2018-07-16T06:45:28.522Z,30.8
2018-07-16T06:46:30.391Z,30.8
2018-07-16T06:47:32.849Z,30.8
2018-07-16T06:48:34.467Z,30.8
2018-07-16T06:49:36.375Z,30.8
2018-07-16T06:50:38.548Z,30.8
2018-07-16T06:51:40.730Z,30.8
2018-07-16T06:52:43.175Z,30.8
2018-07-16T06:53:45.073Z,30.8
2018-07-16T06:54:47.220Z,30.8
2018-07-16T06:55:49.406Z,30.8
2018-07-16T06:56:51.609Z,30.8
2018-07-16T06:57:53.794Z,30.8
2018-07-16T06:58:56.238Z,30.8
2018-07-16T06:59:58.416Z,30.8
2018-07-16T07:01:00.869Z,30.8
2018-07-16T07:02:03.052Z,30.8
2018-07-16T07:03:05.522Z,30.8
2018-07-16T07:04:07.691Z,30.8
2018-07-16T07:05:10.150Z,30.9
2018-07-16T07:06:12.597Z,30.8
2018-07-16T07:07:15.050Z,30.9
2018-07-16T07:08:17.493Z,30.8
2018-07-16T07:09:19.951Z,30.9
2018-07-16T07:10:22.408Z,30.9
2018-07-16T07:11:24.562Z,30.9
2018-07-16T07:12:26.735Z,30.9
2018-07-16T07:13:29.189Z,30.8
2018-07-16T07:14:31.336Z,30.8
2018-07-16T07:15:33.232Z,30.9
2018-07-16T07:16:35.393Z,30.9
2018-07-16T07:17:37.584Z,30.9
2018-07-16T07:18:40.042Z,30.8
2018-07-16T07:19:41.951Z,30.9
2018-07-16T07:20:44.403Z,30.9
2018-07-16T07:21:46.848Z,30.9
2018-07-16T07:22:49.310Z,30.9
2018-07-16T07:23:51.759Z,30.9
2018-07-16T07:24:54.202Z,30.9
2018-07-16T07:25:56.102Z,30.9
2018-07-16T07:26:58.556Z,30.9
2018-07-16T07:28:00.710Z,30.9
2018-07-16T07:29:02.596Z,30.9
2018-07-16T07:30:04.786Z,30.9
2018-07-16T07:31:06.946Z,30.8
2018-07-16T07:32:09.141Z,30.8
2018-07-16T07:33:11.278Z,30.9
2018-07-16T07:34:13.722Z,30.9
2018-07-16T07:35:16.696Z,30.8
2018-07-16T07:36:18.471Z,30.9
2018-07-16T07:37:20.348Z,30.9
2018-07-16T07:38:22.546Z,30.8
2018-07-16T07:39:24.719Z,30.9
2018-07-16T07:40:26.871Z,30.9
2018-07-16T07:41:29.316Z,30.9
2018-07-16T07:42:31.240Z,30.8
2018-07-16T07:43:33.687Z,30.8
2018-07-16T07:44:36.133Z,30.8
2018-07-16T07:45:38.585Z,30.9
2018-07-16T07:46:40.762Z,30.8
2018-07-16T07:47:42.755Z,30.9
2018-07-16T07:48:45.178Z,30.9
2018-07-16T07:49:47.130Z,30.9
2018-07-16T07:50:49.594Z,30.8
2018-07-16T07:51:51.760Z,30.8
2018-07-16T07:52:53.689Z,30.9
2018-07-16T07:53:55.875Z,30.8
2018-07-16T07:54:59.524Z,30.8
2018-07-16T07:56:01.497Z,30.9
2018-07-16T07:57:03.953Z,30.8
2018-07-16T07:58:06.136Z,30.8
2018-07-16T07:59:08.582Z,30.8
2018-07-16T08:00:11.026Z,30.8
2018-07-16T08:01:12.663Z,30.8
2018-07-16T08:02:15.140Z,30.8
2018-07-16T08:03:17.732Z,30.8
2018-07-16T08:04:20.001Z,30.8
2018-07-16T08:05:21.892Z,30.9
2018-07-16T08:06:24.338Z,30.8
2018-07-16T08:07:26.788Z,30.8
2018-07-16T08:08:29.249Z,30.8
2018-07-16T08:09:31.698Z,30.8
2018-07-16T08:10:33.768Z,30.8
2018-07-16T08:11:36.258Z,30.8
2018-07-16T08:12:40.202Z,30.9
2018-07-16T08:13:42.182Z,30.9
2018-07-16T08:14:44.069Z,30.8
2018-07-16T08:15:46.256Z,30.8
2018-07-16T08:16:48.737Z,30.8
2018-07-16T08:17:50.378Z,30.8
2018-07-16T08:18:52.336Z,30.8
2018-07-16T08:19:54.786Z,30.9
2018-07-16T08:20:57.466Z,30.8
2018-07-16T08:22:00.995Z,30.8
2018-07-16T08:23:04.672Z,30.8
2018-07-16T08:24:07.708Z,30.8
2018-07-16T08:25:09.926Z,30.8
2018-07-16T08:26:12.127Z,30.8
2018-07-16T08:27:14.314Z,30.8
2018-07-16T08:28:17.108Z,30.8
2018-07-16T08:29:19.515Z,30.8
2018-07-16T08:30:21.985Z,30.8
2018-07-16T08:31:24.155Z,30.8
2018-07-16T08:32:26.348Z,30.8
2018-07-16T08:33:29.930Z,30.8
2018-07-16T08:34:33.752Z,30.9
2018-07-16T08:35:37.887Z,30.9
2018-07-16T08:36:39.852Z,30.8
2018-07-16T08:37:41.781Z,30.8
2018-07-16T08:38:44.278Z,30.8
2018-07-16T08:39:46.493Z,30.8
2018-07-16T08:40:48.931Z,30.8
2018-07-16T08:41:51.113Z,30.8
2018-07-16T08:42:53.310Z,30.8
2018-07-16T08:43:55.776Z,30.8
2018-07-16T08:44:58.800Z,30.8
2018-07-16T08:46:00.957Z,30.8
2018-07-16T08:47:03.399Z,30.8
2018-07-16T08:48:05.580Z,30.8
2018-07-16T08:49:07.748Z,30.8
2018-07-16T08:50:09.894Z,30.8
2018-07-16T08:51:12.354Z,30.8
2018-07-16T08:52:14.800Z,30.8
2018-07-16T08:53:16.975Z,30.8
2018-07-16T08:54:19.440Z,30.8
2018-07-16T08:55:21.346Z,30.8
2018-07-16T08:56:23.789Z,30.8
2018-07-16T08:57:25.979Z,30.8
2018-07-16T08:58:27.892Z,30.8
2018-07-16T08:59:30.338Z,30.8
2018-07-16T09:00:32.262Z,30.8
2018-07-16T09:01:34.416Z,30.8
2018-07-16T09:02:36.589Z,30.8
2018-07-16T09:03:39.047Z,30.8
2018-07-16T09:04:40.657Z,30.8
2018-07-16T09:05:43.118Z,30.8
2018-07-16T09:06:45.013Z,30.8
2018-07-16T09:07:46.891Z,30.8
2018-07-16T09:08:49.331Z,30.8
2018-07-16T09:09:51.556Z,30.8
2018-07-16T09:10:54.327Z,30.8
2018-07-16T09:11:56.580Z,30.8
2018-07-16T09:12:58.455Z,30.8
2018-07-16T09:14:00.900Z,30.8
2018-07-16T09:15:02.550Z,30.8
2018-07-16T09:16:04.448Z,30.8
2018-07-16T09:17:06.629Z,30.8
2018-07-16T09:18:08.815Z,30.8
2018-07-16T09:19:11.132Z,30.8
2018-07-16T09:20:13.444Z,30.8
2018-07-16T09:21:15.634Z,30.8
2018-07-16T09:22:18.089Z,30.8
2018-07-16T09:23:20.559Z,30.8
2018-07-16T09:24:23.008Z,30.8
2018-07-16T09:25:24.968Z,30.8
2018-07-16T09:26:27.632Z,30.8
2018-07-16T09:27:30.084Z,30.8
2018-07-16T09:28:32.265Z,30.8
2018-07-16T09:29:34.447Z,30.8
2018-07-16T09:30:36.363Z,30.8
2018-07-16T09:31:38.531Z,30.8
2018-07-16T09:32:41.063Z,30.8
2018-07-16T09:33:43.732Z,30.8
2018-07-16T09:34:45.652Z,30.8
2018-07-16T09:35:48.097Z,30.8
2018-07-16T09:36:50.541Z,30.8
2018-07-16T09:37:53.001Z,30.8
2018-07-16T09:38:55.702Z,30.8
2018-07-16T09:39:57.922Z,30.8
2018-07-16T09:41:00.378Z,30.8
2018-07-16T09:42:02.819Z,30.8
2018-07-16T09:43:05.202Z,30.8
2018-07-16T09:44:07.449Z,30.8
2018-07-16T09:45:09.329Z,30.8
2018-07-16T09:46:11.770Z,30.8
2018-07-16T09:47:13.659Z,30.8
2018-07-16T09:48:16.110Z,30.8
2018-07-16T09:49:18.553Z,30.8
2018-07-16T09:50:21.000Z,30.8
2018-07-16T09:51:22.920Z,30.8
2018-07-16T09:52:24.817Z,30.8
2018-07-16T09:53:26.704Z,30.8
2018-07-16T09:54:28.905Z,30.8
2018-07-16T09:55:31.368Z,30.8
2018-07-16T09:56:33.682Z,30.8
2018-07-16T09:57:35.834Z,30.8
2018-07-16T09:58:37.980Z,30.8
2018-07-16T09:59:40.450Z,30.8
2018-07-16T10:00:42.618Z,30.8
2018-07-16T10:01:44.518Z,30.8
2018-07-16T10:02:45.868Z,30.8
2018-07-16T10:03:48.020Z,30.8
2018-07-16T10:04:50.462Z,30.8
2018-07-16T10:05:52.374Z,30.8
2018-07-16T10:06:54.826Z,30.8
2018-07-16T10:07:57.013Z,30.8
2018-07-16T10:08:59.528Z,30.8
2018-07-16T10:10:01.982Z,30.8
2018-07-16T10:11:04.155Z,30.8
2018-07-16T10:12:06.193Z,30.8
2018-07-16T10:13:08.657Z,30.8
2018-07-16T10:14:11.103Z,30.8
2018-07-16T10:15:13.553Z,30.8
2018-07-16T10:16:15.174Z,30.8
2018-07-16T10:17:17.622Z,30.8
2018-07-16T10:18:19.292Z,30.8
2018-07-16T10:19:21.733Z,30.7
2018-07-16T10:20:24.141Z,30.8
2018-07-16T10:21:26.368Z,30.8
2018-07-16T10:22:28.809Z,30.8
2018-07-16T10:23:31.263Z,30.7
2018-07-16T10:24:33.713Z,30.7
2018-07-16T10:25:36.167Z,30.8
2018-07-16T10:26:38.342Z,30.7
2018-07-16T10:27:40.797Z,30.7
2018-07-16T10:28:43.246Z,30.7
2018-07-16T10:29:45.158Z,30.7
2018-07-16T10:30:46.776Z,30.7
2018-07-16T10:31:49.228Z,30.8
2018-07-16T10:32:51.421Z,30.8
2018-07-16T10:33:53.150Z,30.8
2018-07-16T10:34:55.699Z,30.8
2018-07-16T10:35:57.584Z,30.8
2018-07-16T10:36:59.479Z,30.8
2018-07-16T10:38:01.649Z,30.8
2018-07-16T10:39:03.831Z,30.8
2018-07-16T10:40:06.017Z,30.8
2018-07-16T10:41:08.171Z,30.8
2018-07-16T10:42:10.673Z,30.8
2018-07-16T10:43:13.118Z,30.8
2018-07-16T10:44:15.004Z,30.8
2018-07-16T10:45:17.457Z,30.8
2018-07-16T10:46:19.906Z,30.8
2018-07-16T10:47:22.106Z,30.8
2018-07-16T10:48:24.262Z,30.8
2018-07-16T10:49:26.425Z,30.8
2018-07-16T10:50:28.882Z,30.8
2018-07-16T10:51:31.052Z,30.7
2018-07-16T10:52:33.240Z,30.8
2018-07-16T10:53:35.676Z,30.8
2018-07-16T10:54:37.862Z,30.8
2018-07-16T10:55:40.067Z,30.7
2018-07-16T10:56:42.524Z,30.8
2018-07-16T10:57:44.698Z,30.7
2018-07-16T10:58:47.139Z,30.8
2018-07-16T10:59:49.579Z,30.8
2018-07-16T11:00:52.038Z,30.8
2018-07-16T11:01:54.576Z,30.8
2018-07-16T11:02:56.958Z,30.8
2018-07-16T11:03:59.476Z,30.8
2018-07-16T11:05:01.925Z,30.8
2018-07-16T11:06:03.837Z,30.8
2018-07-16T11:07:06.014Z,30.8
2018-07-16T11:08:08.194Z,30.8
2018-07-16T11:09:10.637Z,30.8
2018-07-16T11:10:12.558Z,30.8
2018-07-16T11:11:15.060Z,30.8
2018-07-16T11:12:17.248Z,30.8
2018-07-16T11:13:19.702Z,30.8
2018-07-16T11:14:21.577Z,30.8
2018-07-16T11:15:23.770Z,30.8
2018-07-16T11:16:26.222Z,30.8
2018-07-16T11:17:28.677Z,30.8
2018-07-16T11:18:31.131Z,30.8
2018-07-16T11:19:33.027Z,30.8
2018-07-16T11:20:35.199Z,30.8
2018-07-16T11:21:37.377Z,30.8
2018-07-16T11:22:38.997Z,30.8
2018-07-16T11:23:40.901Z,30.8
2018-07-16T11:24:43.069Z,30.8
2018-07-16T11:25:45.240Z,30.8
2018-07-16T11:26:47.145Z,30.8
2018-07-16T11:27:49.591Z,30.8
2018-07-16T11:28:51.758Z,30.8
2018-07-16T11:29:54.215Z,30.8
2018-07-16T11:30:55.836Z,30.8
2018-07-16T11:31:58.313Z,30.8
2018-07-16T11:33:00.496Z,30.8
2018-07-16T11:34:02.128Z,30.8
2018-07-16T11:35:04.588Z,30.8
2018-07-16T11:36:07.038Z,30.8
2018-07-16T11:37:09.217Z,30.8
2018-07-16T11:38:11.398Z,30.8
2018-07-16T11:39:13.000Z,30.8
2018-07-16T11:40:15.175Z,30.8
2018-07-16T11:41:17.625Z,30.8
2018-07-16T11:42:20.077Z,30.8
2018-07-16T11:43:21.988Z,30.8
2018-07-16T11:44:24.450Z,30.8
2018-07-16T11:45:26.339Z,30.8
2018-07-16T11:46:28.480Z,30.8
2018-07-16T11:47:30.098Z,30.8
2018-07-16T11:48:32.552Z,30.8
2018-07-16T11:49:34.782Z,30.8
2018-07-16T11:50:36.957Z,30.8
2018-07-16T11:51:38.868Z,30.8
2018-07-16T11:52:41.322Z,30.8
2018-07-16T11:53:43.516Z,30.8
2018-07-16T11:54:45.960Z,30.8
2018-07-16T11:55:47.870Z,30.8
2018-07-16T11:56:50.029Z,30.8
2018-07-16T11:57:52.202Z,30.8
2018-07-16T11:58:54.765Z,30.8
2018-07-16T11:59:57.085Z,30.8
2018-07-16T12:00:59.548Z,30.9
2018-07-16T12:02:01.738Z,30.8
2018-07-16T12:03:04.209Z,30.9
2018-07-16T12:04:06.659Z,30.9
2018-07-16T12:05:09.240Z,30.9
2018-07-16T12:06:11.816Z,30.9
2018-07-16T12:07:13.746Z,30.9
2018-07-16T12:08:16.189Z,30.9
2018-07-16T12:09:18.636Z,30.9
2018-07-16T12:10:20.820Z,30.9
2018-07-16T12:11:23.300Z,30.9
2018-07-16T12:12:25.522Z,30.9
2018-07-16T12:13:27.763Z,30.9
2018-07-16T12:14:30.202Z,30.9
2018-07-16T12:15:32.085Z,30.9
2018-07-16T12:16:33.981Z,30.9
2018-07-16T12:17:36.443Z,30.9
2018-07-16T12:18:38.618Z,30.9
2018-07-16T12:19:41.071Z,30.9
2018-07-16T12:20:42.980Z,30.9
2018-07-16T12:21:45.417Z,30.9
2018-07-16T12:22:47.583Z,30.8
2018-07-16T12:23:49.496Z,30.8
2018-07-16T12:24:51.409Z,30.8
2018-07-16T12:25:54.122Z,30.8
2018-07-16T12:26:56.601Z,30.8
2018-07-16T12:27:58.757Z,30.8
2018-07-16T12:29:01.203Z,30.8
2018-07-16T12:30:03.370Z,30.8
2018-07-16T12:31:05.546Z,30.8
2018-07-16T12:32:07.987Z,30.8
2018-07-16T12:33:10.158Z,30.8
2018-07-16T12:34:12.608Z,30.8
2018-07-16T12:35:14.778Z,30.8
2018-07-16T12:36:17.230Z,30.8
2018-07-16T12:37:19.390Z,30.8
2018-07-16T12:38:21.557Z,30.8
2018-07-16T12:39:23.437Z,30.8
2018-07-16T12:40:25.620Z,30.8
2018-07-16T12:41:27.409Z,30.8
2018-07-16T12:42:29.670Z,30.8
2018-07-16T12:43:32.134Z,30.9
2018-07-16T12:44:34.578Z,30.8
2018-07-16T12:45:37.039Z,30.8
2018-07-16T12:46:39.508Z,30.8
2018-07-16T12:47:41.958Z,30.8
2018-07-16T12:48:44.145Z,30.8
2018-07-16T12:49:46.590Z,30.8
2018-07-16T12:50:48.768Z,30.8
2018-07-16T12:51:50.953Z,30.8
2018-07-16T12:52:53.137Z,30.8
2018-07-16T12:53:55.595Z,30.8
2018-07-16T12:54:58.046Z,30.8
2018-07-16T12:56:00.206Z,30.8
2018-07-16T12:57:02.441Z,30.8
2018-07-16T12:58:04.358Z,30.8
2018-07-16T12:59:06.823Z,30.8
2018-07-16T13:00:08.715Z,30.8
2018-07-16T13:01:10.901Z,30.8
2018-07-16T13:02:13.377Z,30.8
2018-07-16T13:03:15.525Z,30.8
2018-07-16T13:04:17.722Z,30.8
2018-07-16T13:05:19.618Z,30.8
2018-07-16T13:06:22.079Z,30.8
2018-07-16T13:07:24.258Z,30.8
2018-07-16T13:08:26.436Z,30.8
2018-07-16T13:09:28.868Z,30.8
2018-07-16T13:10:31.332Z,30.8
2018-07-16T13:11:33.498Z,30.8
2018-07-16T13:12:35.945Z,30.8
2018-07-16T13:13:38.111Z,30.8
2018-07-16T13:14:40.569Z,30.8
2018-07-16T13:15:41.929Z,30.8
2018-07-16T13:16:44.108Z,30.8
2018-07-16T13:17:46.562Z,30.8
2018-07-16T13:18:49.026Z,30.8
2018-07-16T13:19:51.216Z,30.8
2018-07-16T13:20:53.395Z,30.8
2018-07-16T13:21:55.936Z,30.8
2018-07-16T13:22:57.964Z,30.8
2018-07-16T13:24:00.123Z,30.8
2018-07-16T13:25:02.297Z,30.8
2018-07-16T13:26:04.457Z,30.8
2018-07-16T13:27:06.651Z,30.8
2018-07-16T13:28:09.107Z,30.8
2018-07-16T13:29:11.562Z,30.8
2018-07-16T13:30:13.705Z,30.8
2018-07-16T13:31:16.160Z,30.8
2018-07-16T13:32:18.070Z,30.8
2018-07-16T13:33:20.535Z,30.8
2018-07-16T13:34:22.986Z,30.8
2018-07-16T13:35:25.438Z,30.8
2018-07-16T13:36:27.616Z,30.8
2018-07-16T13:37:30.064Z,30.8
2018-07-16T13:38:31.671Z,30.8
2018-07-16T13:39:33.562Z,30.8
2018-07-16T13:40:36.019Z,30.8
2018-07-16T13:41:38.465Z,30.8
2018-07-16T13:42:40.916Z,30.8
2018-07-16T13:43:42.802Z,30.8
2018-07-16T13:44:45.257Z,30.8
2018-07-16T13:45:47.413Z,30.8
2018-07-16T13:46:50.162Z,30.9
2018-07-16T13:47:52.290Z,30.8
2018-07-16T13:48:54.449Z,30.9
2018-07-16T13:49:56.907Z,30.8
2018-07-16T13:50:59.097Z,30.9
2018-07-16T13:52:01.271Z,30.8